createdAt,value
2022-12-31T00:02:20.903Z,3.20
2022-12-31T00:04:48.517Z,3.40
2022-12-31T00:07:14.957Z,3.58
2022-12-31T00:09:41.379Z,3.97
2022-12-31T00:12:07.843Z,4.18
2022-12-31T00:14:34.194Z,4.75
2022-12-31T00:17:00.647Z,4.85
2022-12-31T00:19:27.180Z,4.82
2022-12-31T00:21:53.605Z,4.50
2022-12-31T00:24:20.013Z,4.15
2022-12-31T00:26:46.405Z,3.90
2022-12-31T00:29:12.846Z,3.05
2022-12-31T00:31:39.267Z,2.80
2022-12-31T00:34:05.988Z,3.10
2022-12-31T00:36:35.085Z,2.95
2022-12-31T00:39:02.580Z,2.47
2022-12-31T00:41:30.015Z,2.75
2022-12-31T00:43:56.839Z,2.33
2022-12-31T00:46:23.460Z,2.47
2022-12-31T00:48:49.951Z,2.10
2022-12-31T00:51:18.362Z,1.83
2022-12-31T00:53:45.341Z,2.15
2022-12-31T00:56:17.020Z,1.85
2022-12-31T00:58:43.641Z,1.90
2022-12-31T01:01:11.070Z,2.20
2022-12-31T01:03:37.750Z,2.38
2022-12-31T01:06:05.022Z,2.00
2022-12-31T01:08:31.464Z,2.03
2022-12-31T01:11:16.126Z,2.10
2022-12-31T01:13:42.496Z,2.40
2022-12-31T01:16:11.018Z,2.78
2022-12-31T01:18:37.877Z,2.97
2022-12-31T01:21:07.664Z,2.90
2022-12-31T01:23:34.525Z,2.88
2022-12-31T01:26:02.612Z,2.80
2022-12-31T01:28:29.255Z,2.75
2022-12-31T01:30:55.919Z,2.85
2022-12-31T01:33:22.573Z,2.83
2022-12-31T01:35:49.225Z,2.47
2022-12-31T01:38:15.772Z,2.00
2022-12-31T01:40:42.500Z,1.90
2022-12-31T01:43:19.112Z,1.90
2022-12-31T01:45:52.441Z,1.80
2022-12-31T01:48:24.986Z,1.70
2022-12-31T01:53:18.278Z,2.00
2022-12-31T01:55:52.839Z,2.10
2022-12-31T01:58:22.896Z,2.20
2022-12-31T02:00:51.608Z,2.25
2022-12-31T02:03:18.949Z,2.25
2022-12-31T02:05:51.694Z,2.08
2022-12-31T02:08:18.177Z,2.25
2022-12-31T02:10:44.576Z,1.98
2022-12-31T02:13:11.025Z,1.90
2022-12-31T02:15:58.995Z,1.83
2022-12-31T02:18:31.424Z,2.00
2022-12-31T02:21:19.529Z,1.63
2022-12-31T02:24:07.230Z,1.67
2022-12-31T02:26:45.476Z,1.33
2022-12-31T02:29:48.652Z,1.40
2022-12-31T02:32:25.267Z,1.30
2022-12-31T02:34:56.054Z,1.63
2022-12-31T02:37:23.366Z,1.50
2022-12-31T02:39:50.005Z,1.35
2022-12-31T02:42:16.560Z,1.20
2022-12-31T02:44:43.391Z,1.40
2022-12-31T02:47:09.774Z,1.40
2022-12-31T02:49:44.025Z,1.40
2022-12-31T02:52:33.047Z,1.40
2022-12-31T02:55:20.855Z,1.20
2022-12-31T02:58:21.221Z,1.10
2022-12-31T03:01:13.188Z,1.30
2022-12-31T03:03:39.927Z,1.13
2022-12-31T03:06:08.249Z,1.27
2022-12-31T03:08:54.563Z,1.00
2022-12-31T03:11:39.436Z,0.90
2022-12-31T03:14:05.835Z,0.90
2022-12-31T03:16:32.653Z,1.10
2022-12-31T03:19:17.700Z,1.08
2022-12-31T03:22:02.753Z,1.00
2022-12-31T03:24:47.736Z,1.13
2022-12-31T03:27:14.186Z,1.00
2022-12-31T03:29:40.585Z,1.00
2022-12-31T03:32:06.975Z,1.00
2022-12-31T03:34:33.375Z,0.85
2022-12-31T03:36:59.813Z,0.88
2022-12-31T03:39:26.304Z,2.05
2022-12-31T03:41:52.688Z,1.90
2022-12-31T03:44:19.107Z,1.75
2022-12-31T03:46:45.492Z,1.40
2022-12-31T03:49:11.852Z,1.40
2022-12-31T03:51:38.229Z,1.17
2022-12-31T03:54:04.626Z,1.10
2022-12-31T03:56:31.098Z,0.80
2022-12-31T03:58:57.474Z,0.90
2022-12-31T04:01:24.328Z,0.85
2022-12-31T04:03:50.894Z,0.90
2022-12-31T04:06:17.305Z,0.85
2022-12-31T04:08:43.689Z,1.20
2022-12-31T04:11:10.142Z,1.10
2022-12-31T04:13:36.639Z,1.10
2022-12-31T04:16:03.062Z,1.00
2022-12-31T04:18:29.484Z,0.80
2022-12-31T04:21:01.606Z,0.50
2022-12-31T04:23:28.004Z,0.40
2022-12-31T04:25:54.358Z,0.30
2022-12-31T04:28:20.973Z,0.30
2022-12-31T04:30:47.338Z,0.30
2022-12-31T04:33:13.754Z,0.40
2022-12-31T04:35:40.155Z,0.38
2022-12-31T04:38:06.595Z,0.40
2022-12-31T04:40:32.991Z,0.40
2022-12-31T04:42:59.386Z,0.30
2022-12-31T04:45:25.837Z,0.40
2022-12-31T04:47:52.287Z,0.30
2022-12-31T04:50:18.655Z,0.30
2022-12-31T04:52:45.773Z,0.30
2022-12-31T04:55:12.236Z,0.38
2022-12-31T04:57:38.876Z,0.35
2022-12-31T05:00:05.717Z,0.40
2022-12-31T05:02:32.435Z,0.35
2022-12-31T05:04:58.919Z,0.30
2022-12-31T05:07:25.282Z,0.30
2022-12-31T05:09:51.720Z,0.38
2022-12-31T05:12:18.109Z,0.40
2022-12-31T05:14:44.492Z,0.40
2022-12-31T05:17:10.888Z,0.40
2022-12-31T05:19:37.281Z,0.43
2022-12-31T05:22:41.990Z,0.45
2022-12-31T05:25:08.784Z,0.50
2022-12-31T05:27:35.385Z,0.47
2022-12-31T05:30:01.755Z,0.57
2022-12-31T05:32:28.323Z,0.68
2022-12-31T05:34:54.711Z,1.00
2022-12-31T05:37:21.410Z,0.90
2022-12-31T05:39:47.874Z,0.90
2022-12-31T05:42:14.254Z,1.20
2022-12-31T05:44:40.663Z,1.08
2022-12-31T05:47:07.040Z,1.10
2022-12-31T05:49:33.421Z,1.00
2022-12-31T05:51:59.884Z,0.82
2022-12-31T05:54:26.434Z,0.80
2022-12-31T05:56:52.935Z,0.80
2022-12-31T05:59:19.357Z,0.90
2022-12-31T06:01:45.774Z,1.20
2022-12-31T06:04:12.186Z,1.20
2022-12-31T06:06:38.661Z,1.60
2022-12-31T06:09:05.141Z,1.92
2022-12-31T06:11:31.535Z,2.30
2022-12-31T06:13:58.299Z,2.60
2022-12-31T06:16:24.842Z,2.70
2022-12-31T06:18:51.247Z,2.83
2022-12-31T06:21:19.091Z,3.17
2022-12-31T06:23:45.711Z,3.38
2022-12-31T06:26:12.075Z,3.28
2022-12-31T06:28:38.496Z,2.95
2022-12-31T06:31:07.103Z,2.85
2022-12-31T06:33:34.200Z,2.55
2022-12-31T06:36:04.232Z,1.90
2022-12-31T06:38:31.701Z,1.92
2022-12-31T06:40:58.168Z,1.70
2022-12-31T06:43:24.568Z,1.50
2022-12-31T06:45:50.957Z,1.45
2022-12-31T06:48:17.635Z,1.38
2022-12-31T06:50:44.004Z,1.02
2022-12-31T06:53:10.366Z,1.30
2022-12-31T06:55:36.976Z,1.50
2022-12-31T06:58:04.448Z,1.60
2022-12-31T07:00:31.009Z,1.52
2022-12-31T07:03:23.243Z,1.35
2022-12-31T07:05:52.891Z,1.70
2022-12-31T07:08:33.821Z,1.95
2022-12-31T07:11:06.165Z,1.85
2022-12-31T07:13:45.198Z,2.00
2022-12-31T07:16:17.708Z,1.70
2022-12-31T07:18:49.010Z,1.95
2022-12-31T07:21:17.613Z,1.52
2022-12-31T07:23:44.123Z,2.08
2022-12-31T07:26:18.888Z,0.85
2022-12-31T07:29:08.560Z,0.60
2022-12-31T07:31:51.088Z,0.80
2022-12-31T07:34:42.234Z,0.60
2022-12-31T07:37:43.605Z,0.63
2022-12-31T07:40:47.549Z,0.80
2022-12-31T07:43:22.714Z,2.35
2022-12-31T07:45:53.110Z,1.30
2022-12-31T07:48:27.402Z,1.05
2022-12-31T07:50:55.271Z,0.98
2022-12-31T07:53:22.998Z,1.10
2022-12-31T07:55:54.046Z,0.80
2022-12-31T07:58:58.178Z,1.25
2022-12-31T08:01:33.680Z,1.50
2022-12-31T08:04:05.442Z,1.40
2022-12-31T08:06:53.977Z,1.45
2022-12-31T08:09:42.343Z,1.63
2022-12-31T08:12:08.879Z,1.45
2022-12-31T08:14:43.300Z,2.10
2022-12-31T08:17:17.798Z,1.92
2022-12-31T08:19:45.781Z,2.00
2022-12-31T08:22:45.939Z,1.92
2022-12-31T08:25:23.739Z,2.45
2022-12-31T08:28:11.404Z,2.03
2022-12-31T08:30:53.464Z,2.30
2022-12-31T08:33:30.422Z,2.35
2022-12-31T08:36:17.232Z,2.25
2022-12-31T08:38:50.735Z,2.10
2022-12-31T08:41:23.543Z,1.60
2022-12-31T08:44:04.459Z,1.48
2022-12-31T08:46:48.837Z,1.20
2022-12-31T08:49:15.466Z,1.00
2022-12-31T08:51:42.154Z,1.20
2022-12-31T08:54:12.336Z,0.80
2022-12-31T08:57:01.042Z,1.00
2022-12-31T08:59:44.367Z,0.77
2022-12-31T09:02:32.513Z,0.75
2022-12-31T09:05:16.810Z,0.70
2022-12-31T09:08:23.622Z,0.80
2022-12-31T09:11:08.075Z,0.80
2022-12-31T09:13:54.032Z,0.70
2022-12-31T09:16:41.937Z,0.82
2022-12-31T09:19:11.671Z,0.73
2022-12-31T09:21:41.699Z,0.65
2022-12-31T09:24:11.719Z,0.60
2022-12-31T09:27:06.590Z,0.70
2022-12-31T09:29:44.894Z,0.60
2022-12-31T09:32:37.137Z,0.50
2022-12-31T09:35:11.220Z,0.57
2022-12-31T09:37:50.837Z,0.82
2022-12-31T09:40:50.008Z,0.70
2022-12-31T09:43:45.078Z,0.60
2022-12-31T09:46:24.314Z,0.63
2022-12-31T09:49:02.640Z,0.65
2022-12-31T09:51:36.718Z,0.52
2022-12-31T09:54:09.240Z,0.50
2022-12-31T09:56:39.931Z,0.80
2022-12-31T09:59:29.900Z,0.63
2022-12-31T10:02:03.449Z,0.65
2022-12-31T10:04:57.259Z,0.68
2022-12-31T10:07:28.351Z,0.70
2022-12-31T10:09:57.619Z,0.40
2022-12-31T10:12:40.041Z,0.63
2022-12-31T10:15:41.654Z,0.70
2022-12-31T10:18:28.711Z,0.60
2022-12-31T10:21:25.063Z,0.63
2022-12-31T10:24:03.231Z,0.70
2022-12-31T10:26:54.835Z,0.55
2022-12-31T10:29:47.197Z,0.70
2022-12-31T10:32:16.093Z,0.60
2022-12-31T10:35:30.743Z,0.70
2022-12-31T10:38:11.379Z,0.77
2022-12-31T10:41:02.083Z,0.70
2022-12-31T10:43:43.575Z,0.60
2022-12-31T10:46:23.873Z,0.95
2022-12-31T10:49:18.011Z,0.55
2022-12-31T10:51:56.470Z,0.75
2022-12-31T10:55:01.863Z,0.73
2022-12-31T10:58:03.991Z,0.77
2022-12-31T11:00:49.061Z,0.77
2022-12-31T11:03:43.122Z,0.73
2022-12-31T11:06:51.787Z,0.60
2022-12-31T11:09:34.661Z,0.75
2022-12-31T11:12:28.125Z,0.90
2022-12-31T11:15:03.415Z,0.98
2022-12-31T11:17:43.360Z,0.70
2022-12-31T11:20:24.904Z,0.88
2022-12-31T11:23:01.471Z,0.75
2022-12-31T11:25:43.791Z,0.90
2022-12-31T11:28:25.363Z,1.02
2022-12-31T11:31:11.262Z,1.10
2022-12-31T11:33:50.116Z,1.15
2022-12-31T11:36:32.504Z,1.30
2022-12-31T11:39:16.826Z,1.00
2022-12-31T11:41:48.672Z,1.10
2022-12-31T11:44:24.076Z,1.30
2022-12-31T11:47:08.876Z,1.00
2022-12-31T11:49:41.223Z,1.27
2022-12-31T11:52:33.426Z,1.00
2022-12-31T11:55:25.229Z,1.30
2022-12-31T11:57:52.289Z,0.80
2022-12-31T12:00:25.121Z,1.15
2022-12-31T12:03:00.129Z,1.02
2022-12-31T12:05:27.733Z,1.27
2022-12-31T12:07:54.604Z,0.90
2022-12-31T12:10:48.032Z,1.20
2022-12-31T12:13:17.334Z,1.10
2022-12-31T12:15:50.130Z,1.88
2022-12-31T12:18:44.589Z,1.27
2022-12-31T12:21:21.266Z,1.90
2022-12-31T12:24:04.832Z,1.05
2022-12-31T12:26:37.147Z,1.40
2022-12-31T12:29:17.384Z,0.95
2022-12-31T12:31:55.921Z,1.50
2022-12-31T12:34:25.385Z,1.02
2022-12-31T12:36:52.158Z,1.38
2022-12-31T12:39:29.966Z,0.98
2022-12-31T12:42:12.891Z,1.00
2022-12-31T12:44:40.152Z,1.00
2022-12-31T12:47:08.969Z,1.55
2022-12-31T12:49:40.650Z,1.45
2022-12-31T12:52:23.555Z,1.08
2022-12-31T12:55:16.210Z,1.20
2022-12-31T12:57:50.559Z,1.20
2022-12-31T13:00:42.276Z,1.00
2022-12-31T13:03:27.387Z,0.73
2022-12-31T13:06:08.350Z,0.90
2022-12-31T13:08:54.391Z,1.00
2022-12-31T13:11:44.170Z,0.75
2022-12-31T13:14:23.624Z,1.10
2022-12-31T13:17:18.725Z,1.25
2022-12-31T13:19:52.504Z,1.20
2022-12-31T13:22:42.615Z,1.17
2022-12-31T13:25:24.393Z,1.00
2022-12-31T13:27:58.269Z,0.73
2022-12-31T13:30:40.570Z,1.02
2022-12-31T13:33:14.727Z,1.00
2022-12-31T13:35:58.409Z,1.10
2022-12-31T13:38:30.522Z,1.20
2022-12-31T13:41:11.569Z,1.10
2022-12-31T13:43:59.159Z,1.00
2022-12-31T13:46:45.776Z,0.90
2022-12-31T13:49:20.835Z,0.90
2022-12-31T13:51:49.734Z,0.98
2022-12-31T13:54:24.783Z,0.88
2022-12-31T13:56:52.122Z,1.08
2022-12-31T13:59:33.554Z,1.23
2022-12-31T14:02:24.926Z,0.95
2022-12-31T14:05:03.279Z,1.08
2022-12-31T14:07:41.872Z,1.10
2022-12-31T14:10:16.253Z,4.43
2022-12-31T14:12:52.649Z,2.10
2022-12-31T14:15:29.514Z,1.60
2022-12-31T14:18:14.017Z,1.00
2022-12-31T14:20:58.925Z,1.23
2022-12-31T14:24:05.048Z,1.38
2022-12-31T14:26:34.745Z,1.08
2022-12-31T14:29:07.276Z,1.50
2022-12-31T14:32:09.884Z,2.35
2022-12-31T14:34:57.625Z,2.17
2022-12-31T14:37:47.077Z,1.48
2022-12-31T14:40:34.820Z,1.38
2022-12-31T14:43:23.101Z,1.23
2022-12-31T14:45:52.437Z,1.30
2022-12-31T14:48:56.710Z,1.40
2022-12-31T14:51:29.711Z,1.23
2022-12-31T14:53:57.279Z,1.23
2022-12-31T14:56:31.774Z,1.23
2022-12-31T14:59:01.234Z,1.50
2022-12-31T15:01:28.015Z,1.30
2022-12-31T15:03:57.668Z,1.45
2022-12-31T15:06:24.018Z,1.40
2022-12-31T15:09:23.113Z,1.85
2022-12-31T15:12:04.796Z,1.60
2022-12-31T15:14:49.875Z,1.30
2022-12-31T15:17:43.619Z,1.23
2022-12-31T15:20:30.027Z,1.17
2022-12-31T15:22:56.780Z,1.30
2022-12-31T15:25:30.910Z,1.50
2022-12-31T15:28:05.371Z,1.50
2022-12-31T15:30:48.524Z,2.03
2022-12-31T15:33:22.767Z,1.50
2022-12-31T15:35:51.840Z,1.40
2022-12-31T15:38:39.010Z,1.38
2022-12-31T15:41:18.710Z,1.25
2022-12-31T15:44:00.243Z,1.48
2022-12-31T15:46:30.785Z,1.27
2022-12-31T15:49:13.412Z,1.85
2022-12-31T15:51:45.252Z,1.55
2022-12-31T15:54:39.990Z,1.25
2022-12-31T15:57:09.517Z,1.90
2022-12-31T15:59:38.116Z,1.80
2022-12-31T16:02:04.622Z,1.90
2022-12-31T16:04:33.345Z,1.80
2022-12-31T16:07:03.753Z,1.63
2022-12-31T16:09:34.002Z,1.77
2022-12-31T16:12:01.544Z,1.90
2022-12-31T16:14:39.033Z,1.95
2022-12-31T16:17:06.082Z,1.75
2022-12-31T16:19:46.125Z,1.50
2022-12-31T16:22:18.896Z,1.90
2022-12-31T16:25:10.843Z,1.98
2022-12-31T16:27:31.970Z,1.75
2022-12-31T16:30:08.365Z,1.65
2022-12-31T16:32:38.686Z,1.63
2022-12-31T16:35:29.454Z,1.48
2022-12-31T16:38:03.623Z,1.90
2022-12-31T16:40:30.032Z,1.90
2022-12-31T16:42:56.413Z,1.88
2022-12-31T16:45:34.524Z,2.30
2022-12-31T16:48:11.217Z,1.95
2022-12-31T16:50:48.269Z,1.83
2022-12-31T16:53:17.875Z,1.48
2022-12-31T16:55:51.421Z,1.70
2022-12-31T16:58:22.029Z,1.90
2022-12-31T17:00:50.198Z,2.42
2022-12-31T17:03:21.531Z,1.73
2022-12-31T17:06:03.743Z,2.03
2022-12-31T17:08:59.470Z,1.88
2022-12-31T17:11:34.061Z,2.17
2022-12-31T17:14:06.706Z,2.22
2022-12-31T17:16:34.439Z,1.80
2022-12-31T17:19:01.118Z,2.15
2022-12-31T17:21:30.577Z,2.00
2022-12-31T17:24:03.624Z,2.00
2022-12-31T17:26:32.023Z,2.20
2022-12-31T17:29:00.347Z,1.83
2022-12-31T17:31:28.047Z,1.83
2022-12-31T17:33:55.766Z,1.90
2022-12-31T17:36:23.559Z,1.95
2022-12-31T17:38:50.304Z,1.77
2022-12-31T17:41:27.157Z,2.15
2022-12-31T17:43:55.213Z,1.80
2022-12-31T17:46:22.961Z,2.08
2022-12-31T17:49:11.072Z,1.95
2022-12-31T17:51:41.219Z,1.70
2022-12-31T17:54:14.893Z,1.98
2022-12-31T17:56:41.758Z,1.90
2022-12-31T17:59:08.184Z,2.10
2022-12-31T18:01:34.665Z,1.88
2022-12-31T18:04:01.323Z,2.22
2022-12-31T18:06:27.782Z,2.00
2022-12-31T18:08:56.943Z,1.60
2022-12-31T18:11:24.024Z,2.03
2022-12-31T18:13:50.551Z,2.38
2022-12-31T18:16:17.229Z,2.15
2022-12-31T18:18:45.200Z,2.40
2022-12-31T18:21:28.301Z,2.20
2022-12-31T18:26:24.532Z,2.00
2022-12-31T18:28:51.364Z,2.45
2022-12-31T18:31:20.724Z,2.00
2022-12-31T18:33:48.135Z,2.20
2022-12-31T18:36:16.095Z,1.70
2022-12-31T18:38:45.287Z,1.88
2022-12-31T18:41:17.921Z,1.77
2022-12-31T18:43:44.426Z,2.20
2022-12-31T18:46:16.535Z,2.20
2022-12-31T18:48:44.043Z,2.22
2022-12-31T18:51:15.232Z,2.20
2022-12-31T18:53:41.607Z,2.10
2022-12-31T18:56:16.954Z,1.98
2022-12-31T18:58:44.339Z,2.00
2022-12-31T19:01:30.626Z,1.88
2022-12-31T19:04:06.660Z,2.00
2022-12-31T19:06:33.055Z,2.47
2022-12-31T19:09:01.199Z,2.42
2022-12-31T19:11:28.063Z,2.00
2022-12-31T19:13:54.481Z,1.92
2022-12-31T19:16:20.978Z,2.35
2022-12-31T19:18:48.948Z,2.08
2022-12-31T19:21:17.793Z,2.22
2022-12-31T19:23:45.287Z,1.80
2022-12-31T19:26:15.390Z,1.90
2022-12-31T19:28:41.895Z,1.73
2022-12-31T19:31:08.533Z,2.17
2022-12-31T19:33:34.946Z,2.35
2022-12-31T19:36:01.379Z,2.08
2022-12-31T19:38:32.550Z,1.92
2022-12-31T19:40:59.483Z,2.03
2022-12-31T19:43:25.908Z,1.73
2022-12-31T19:45:52.810Z,2.20
2022-12-31T19:48:25.830Z,2.10
2022-12-31T19:50:56.772Z,1.77
2022-12-31T19:53:26.200Z,1.80
2022-12-31T19:55:53.099Z,1.77
2022-12-31T19:58:25.448Z,2.05
2022-12-31T20:05:51.353Z,2.17
2022-12-31T20:08:20.191Z,2.10
2022-12-31T20:10:46.638Z,1.95
2022-12-31T20:13:13.033Z,1.88
2022-12-31T20:15:39.557Z,2.28
2022-12-31T20:18:06.104Z,2.20
2022-12-31T20:20:32.635Z,1.95
2022-12-31T20:22:59.023Z,2.17
2022-12-31T20:25:25.719Z,2.00
2022-12-31T20:27:54.370Z,2.00
2022-12-31T20:30:22.862Z,2.10
2022-12-31T20:32:51.616Z,2.30
2022-12-31T20:35:18.671Z,2.40
2022-12-31T20:37:45.087Z,1.90
2022-12-31T20:40:12.147Z,1.90
2022-12-31T20:42:40.591Z,2.05
2022-12-31T20:45:10.890Z,2.00
2022-12-31T20:47:37.720Z,2.05
2022-12-31T20:50:12.621Z,2.10
2022-12-31T20:52:39.273Z,2.17
2022-12-31T20:55:06.315Z,2.20
2022-12-31T20:57:33.882Z,2.10
2022-12-31T21:00:01.029Z,1.90
2022-12-31T21:02:41.053Z,2.40
2022-12-31T21:05:08.769Z,2.58
2022-12-31T21:07:35.351Z,2.38
2022-12-31T21:10:01.744Z,2.38
2022-12-31T21:12:43.439Z,2.72
2022-12-31T21:15:11.613Z,2.00
2022-12-31T21:17:38.007Z,1.85
2022-12-31T21:20:05.292Z,1.92
2022-12-31T21:22:33.633Z,2.10
2022-12-31T21:25:03.839Z,2.10
2022-12-31T21:27:30.236Z,2.38
2022-12-31T21:32:43.023Z,2.13
2022-12-31T21:37:58.614Z,2.03
2022-12-31T21:40:27.680Z,2.58
2022-12-31T21:42:54.059Z,2.08
2022-12-31T21:45:20.423Z,2.38
2022-12-31T21:48:05.377Z,2.28
2022-12-31T21:50:32.469Z,2.50
2022-12-31T21:52:58.833Z,2.13
2022-12-31T21:55:43.923Z,1.95
2022-12-31T21:58:27.349Z,2.40
2022-12-31T22:01:13.813Z,2.13
2022-12-31T22:03:40.618Z,2.42
2022-12-31T22:06:16.223Z,2.60
2022-12-31T22:08:45.091Z,2.95
2022-12-31T22:11:12.495Z,2.22
2022-12-31T22:13:39.045Z,2.65
2022-12-31T22:16:06.348Z,2.45
2022-12-31T22:18:40.878Z,1.80
2022-12-31T22:21:19.571Z,2.05
2022-12-31T22:23:54.770Z,2.15
2022-12-31T22:26:24.539Z,2.47
2022-12-31T22:28:51.310Z,2.20
2022-12-31T22:31:24.406Z,2.78
2022-12-31T22:33:50.986Z,2.92
2022-12-31T22:36:19.585Z,3.55
2022-12-31T22:38:46.144Z,2.95
2022-12-31T22:41:15.239Z,3.45
2022-12-31T22:43:44.252Z,2.55
2022-12-31T22:46:29.708Z,2.28
2022-12-31T22:48:58.047Z,2.55
2022-12-31T22:51:24.438Z,2.50
2022-12-31T22:53:50.939Z,2.40
2022-12-31T22:56:18.424Z,2.45
2022-12-31T22:58:45.450Z,2.40
2022-12-31T23:01:21.772Z,2.38
2022-12-31T23:03:49.618Z,2.35
2022-12-31T23:06:16.404Z,8.70
2022-12-31T23:09:02.932Z,4.25
2022-12-31T23:11:29.940Z,5.00
2022-12-31T23:14:15.063Z,6.65
2022-12-31T23:16:59.923Z,6.80
2022-12-31T23:20:05.144Z,7.05
2022-12-31T23:22:50.318Z,6.55
2022-12-31T23:25:17.129Z,6.90
2022-12-31T23:27:43.710Z,7.25
2022-12-31T23:30:10.923Z,8.23
2022-12-31T23:32:37.472Z,7.50
2022-12-31T23:35:09.563Z,8.63
2022-12-31T23:37:36.529Z,8.32
2022-12-31T23:40:02.926Z,7.45
2022-12-31T23:42:29.314Z,6.70
2022-12-31T23:44:55.692Z,6.80
2022-12-31T23:47:22.135Z,6.82
2022-12-31T23:49:48.577Z,5.85
2022-12-31T23:52:15.126Z,6.05
2022-12-31T23:54:41.521Z,6.00
2022-12-31T23:57:08.029Z,5.22
2022-12-31T23:59:34.417Z,6.13
